Latest Weather Observations for Lismore Airport

IDN60801

Issued at 12:35 am EDT Thursday 27 November 2014 (issued every 30 minutes, with the page automatically refreshed every 10 minutes)

About weather observations | Map of weather stations | Latest weather observations for NSW | Other Formats
Station Details ID: 058214 Name: LISMORE AIRPORT AWS Lat: -28.83 Lon: 153.26 Height: 9.21 m
Data from the previous 72 hours. | See also: Recent months for locations in New South Wales
Date/Time
EDT
Temp
°C
App
Temp
°C
Dew
Point
Rel
Hum
%
Delta-T
°C
Wind Press
QNH
hPa
Press
MSL
hPa
Rain
since 9 am
mm
Dir
 
Spd
km/h
Gust
km/h
Spd
kts
Gust
kts
27/12:30am 21.1 23.9 20.9 99 0.1 W 7 13 4 7 1016.7 1016.7 23.4
27/12:00am 21.3 23.8 21.1 99 0.1 NNE 9 13 5 7 1016.7 1016.7 23.4
 
Date/Time
EDT
Temp
°C
App
Temp
°C
Dew
Point
Rel
Hum
%
Delta-T
°C
Wind Press
QNH
hPa
Press
MSL
hPa
Rain
since 9 am
mm
Dir
 
Spd
km/h
Gust
km/h
Spd
kts
Gust
kts
26/11:30pm 21.4 23.6 21.2 99 0.1 NE 11 13 6 7 1016.2 1016.2 23.4
26/11:00pm 21.4 24.6 21.2 99 0.1 ENE 6 7 3 4 1016.8 1016.8 23.4
26/10:30pm 21.2 24.3 21.0 99 0.1 S 6 15 3 8 1017.4 1017.4 23.4
26/10:00pm 21.1 23.9 20.9 99 0.1 WNW 7 11 4 6 1017.5 1017.5 23.4
26/09:30pm 21.4 24.6 21.2 99 0.1 SSW 6 15 3 8 1016.6 1016.6 23.4
26/09:00pm 21.5 23.8 21.3 99 0.1 ESE 11 19 6 10 1016.5 1016.5 23.4
26/08:30pm 21.4 25.7 21.1 98 0.2 CALM 0 0 0 0 1016.9 1016.9 23.4
26/08:00pm 21.5 24.5 21.3 99 0.1 WNW 7 13 4 7 1017.1 1017.1 23.4
26/07:30pm 21.7 26.0 21.2 97 0.3 CALM 0 0 0 0 1016.7 1016.7 23.4
26/07:00pm 21.8 26.2 21.3 97 0.3 CALM 0 0 0 0 1016.4 1016.4 23.4
26/06:30pm 21.9 24.7 21.6 98 0.2 N 9 11 5 6 1016.3 1016.3 23.0
26/06:05pm 22.1 25.6 21.8 98 0.2 NNW 6 9 3 5 1016.3 1016.3 23.0
26/06:00pm 22.2 26.8 21.7 97 0.3 CALM 0 7 0 4 1016.2 1016.2 23.0
26/05:40pm 21.9 26.3 21.4 97 0.3 CALM 0 0 0 0 1016.1 1016.1 23.0
26/05:30pm 21.8 25.1 21.5 98 0.2 NE 6 9 3 5 1016.1 1016.1 22.8
26/05:19pm 21.7 24.8 21.4 98 0.2 NE 7 11 4 6 1016.1 1016.1 22.8
26/05:18pm 21.8 24.9 21.5 98 0.2 ENE 7 13 4 7 1016.1 1016.1 22.8
26/05:00pm 21.6 23.8 21.1 97 0.3 NE 11 17 6 9 1016.2 1016.2 22.4
26/04:30pm 21.6 22.6 21.1 97 0.3 NE 17 20 9 11 1016.2 1016.2 20.4
26/04:25pm 21.6 23.1 21.3 98 0.2 NE 15 22 8 12 1016.2 1016.2 20.4
26/04:00pm 21.9 23.1 21.4 97 0.3 NE 17 22 9 12 1015.9 1015.9 17.8
26/03:37pm 22.9 24.2 21.7 93 0.8 NE 17 22 9 12 1015.7 1015.7 3.6
26/03:30pm 23.1 24.0 21.5 91 1.1 NE 19 22 10 12 1015.7 1015.7 2.2
26/03:22pm 23.3 24.6 21.6 90 1.1 NE 17 22 9 12 1015.7 1015.7 1.8
26/03:00pm 23.8 26.5 22.2 91 1.1 ESE 11 15 6 8 1016.0 1016.0 1.8
26/02:30pm 22.7 25.3 21.9 95 0.5 SSE 11 15 6 8 1016.1 1016.1 1.8
26/02:23pm 22.4 24.3 21.4 94 0.7 SE 13 22 7 12 1016.1 1016.1 1.8
26/02:06pm 22.3 23.3 21.1 93 0.8 SSE 17 22 9 12 1016.1 1016.1 1.2
26/02:00pm 22.6 23.3 21.2 92 0.9 SSE 19 24 10 13 1016.3 1016.3 0.4
26/01:30pm 24.7 23.6 21.0 80 2.4 S 28 33 15 18 1016.2 1016.2 0.2
26/01:28pm 24.8 23.3 20.9 79 2.6 S 30 33 16 18 1016.2 1016.2 0.2
26/01:00pm 27.5 29.8 20.6 66 4.5 S 9 13 5 7 1016.2 1016.2 0.2
26/12:30pm 27.5 29.2 20.1 64 4.8 SW 11 17 6 9 1016.6 1016.6 0.2
26/12:00pm 27.3 30.3 20.9 68 4.2 SW 6 15 3 8 1016.9 1016.9 0.2
26/11:35am 26.5 29.0 20.3 68 4.1 SSE 7 15 4 8 1017.0 1017.0 0.2
26/11:30am 26.6 29.7 21.4 73 3.5 ESE 7 15 4 8 1017.1 1017.1 0.2
26/11:00am 25.0 28.8 20.9 78 2.7 SSW 2 9 1 5 1017.6 1017.6 0.0
26/10:30am 23.6 26.4 20.5 83 2.0 SSW 6 9 3 5 1017.5 1017.5 0.0
26/10:00am 23.0 26.5 20.3 85 1.7 SSE 2 7 1 4 1017.7 1017.7 0.0
26/09:30am 22.4 24.6 20.5 89 1.2 WSW 9 13 5 7 1017.9 1017.9 0.0
26/09:00am 22.4 25.0 20.5 89 1.2 SW 7 15 4 8 1017.8 1017.8 2.2
26/08:30am 21.6 23.9 19.9 90 1.1 SSW 7 9 4 5 1017.6 1017.6 2.2
26/08:00am 21.4 23.0 20.0 92 0.9 SW 11 15 6 8 1017.8 1017.8 2.2
26/07:30am 21.5 23.3 20.3 93 0.8 WSW 11 15 6 8 1017.6 1017.6 2.2
26/07:00am 21.4 24.2 20.4 94 0.6 WSW 6 13 3 7 1017.3 1017.3 2.2
26/06:30am 21.3 23.9 20.5 95 0.5 SW 7 9 4 5 1017.1 1017.1 2.2
26/06:00am 21.2 25.1 20.4 95 0.5 CALM 0 0 0 0 1016.8 1016.8 2.2
26/05:30am 21.1 24.3 20.6 97 0.3 SW 4 9 2 5 1016.7 1016.7 2.2
26/05:00am 20.7 23.5 20.4 98 0.2 NW 6 7 3 4 1016.4 1016.4 2.2
26/04:31am 20.6 23.3 20.3 98 0.2 N 6 11 3 6 1015.9 1015.9 2.2
26/04:30am 20.6 23.7 20.3 98 0.2 N 4 11 2 6 1015.9 1015.9 2.2
26/04:28am 20.6 24.1 20.3 98 0.2 N 2 11 1 6 1015.9 1015.9 2.2
26/04:00am 20.6 23.2 20.1 97 0.3 N 6 9 3 5 1016.1 1016.1 2.0
26/03:30am 20.5 24.2 20.0 97 0.3 CALM 0 0 0 0 1016.3 1016.3 2.0
26/03:00am 20.5 24.2 20.0 97 0.3 CALM 0 0 0 0 1016.5 1016.5 1.8
26/02:59am 20.4 24.0 19.7 96 0.4 CALM 0 0 0 0 1016.5 1016.5 1.8
26/02:30am 20.4 24.0 19.7 96 0.4 CALM 0 0 0 0 1016.5 1016.5 1.8
26/02:00am 20.3 23.8 19.6 96 0.4 CALM 0 0 0 0 1016.9 1016.9 1.8
26/01:30am 20.2 23.5 19.2 94 0.6 CALM 0 0 0 0 1017.4 1017.4 1.2
26/01:00am 20.3 23.7 19.3 94 0.6 CALM 0 0 0 0 1017.6 1017.6 1.0
26/12:30am 20.3 23.4 18.6 90 1.1 CALM 0 0 0 0 1017.8 1017.8 0.6
26/12:00am 20.4 23.5 18.7 90 1.1 CALM 0 0 0 0 1018.2 1018.2 0.4
 
Date/Time
EDT
Temp
°C
App
Temp
°C
Dew
Point
Rel
Hum
%
Delta-T
°C
Wind Press
QNH
hPa
Press
MSL
hPa
Rain
since 9 am
mm
Dir
 
Spd
km/h
Gust
km/h
Spd
kts
Gust
kts
25/11:30pm 20.4 23.6 18.9 91 0.9 CALM 0 0 0 0 1018.3 1018.3 0.4
25/11:00pm 20.4 21.7 19.2 93 0.8 S 11 13 6 7 1018.1 1018.1 0.4
25/10:30pm 20.5 21.7 19.0 91 0.9 S 11 13 6 7 1018.2 1018.2 0.4
25/10:00pm 20.7 22.3 19.2 91 0.9 SE 9 13 5 7 1018.0 1018.0 0.4
25/09:30pm 21.0 22.9 18.9 88 1.3 SSE 7 13 4 7 1018.4 1018.4 0.4
25/09:00pm 20.9 21.2 18.8 88 1.3 SW 15 24 8 13 1018.2 1018.2 0.4
25/08:30pm 21.4 22.9 19.0 86 1.5 SW 9 15 5 8 1017.3 1017.3 0.4
25/08:00pm 21.6 22.3 18.0 80 2.2 SSE 11 19 6 10 1016.8 1016.8 0.4
25/07:30pm 22.3 21.7 18.5 79 2.4 SSE 19 24 10 13 1016.4 1016.4 0.2
25/07:00pm 23.3 24.2 20.8 86 1.6 SSE 17 24 9 13 1015.7 1015.7 0.2
25/06:30pm 23.0 22.3 21.1 89 1.2 S 26 37 14 20 1015.4 1015.4 0.0
25/06:00pm 23.2 20.0 20.2 83 1.9 S 37 56 20 30 1014.2 1014.2 0.0
25/05:33pm 27.2 21.4 17.4 55 6.2 S 44 76 24 41 1013.3 1013.3 0.0
25/05:30pm 29.4 24.2 16.6 46 8.0 S 39 57 21 31 1013.2 1013.2 0.0
25/05:29pm 29.6 24.7 16.4 45 8.2 S 37 57 20 31 1013.0 1013.0 0.0
25/05:28pm 30.0 25.7 16.8 45 8.3 S 35 44 19 24 1012.9 1012.9 0.0
25/05:00pm 31.2 29.7 16.8 42 9.1 ESE 20 24 11 13 1010.9 1010.9 0.0
25/04:30pm 32.4 30.6 17.8 41 9.4 NE 24 32 13 17 1010.4 1010.4 0.0
25/04:00pm 34.8 33.8 17.9 36 11.0 E 20 28 11 15 1009.9 1009.9 0.0
25/03:30pm 35.1 34.0 17.8 36 11.2 E 20 24 11 13 1009.9 1009.9 0.0
25/03:00pm 36.7 37.5 17.3 31 12.6 ESE 9 15 5 8 1010.0 1010.0 0.0
25/02:30pm 36.5 37.8 17.1 31 12.5 NW 6 15 3 8 1010.4 1010.4 0.0
25/02:00pm 35.3 36.0 16.1 32 12.2 ENE 7 13 4 7 1010.7 1010.7 0.0
25/01:30pm 35.0 35.0 16.3 32 11.9 SSE 11 17 6 9 1011.1 1011.1 0.0
25/01:00pm 34.4 35.2 16.3 34 11.5 NNE 7 15 4 8 1011.4 1011.4 0.0
25/12:30pm 33.5 33.9 16.4 36 10.8 WNW 9 15 5 8 1011.8 1011.8 0.0
25/12:00pm 33.0 33.0 18.0 41 9.7 N 15 20 8 11 1012.2 1012.2 0.0
25/11:30am 32.5 31.8 18.3 43 9.2 WNW 19 30 10 16 1012.7 1012.7 0.0
25/11:00am 31.7 30.8 18.3 45 8.7 WNW 20 28 11 15 1013.1 1013.1 0.0
25/10:30am 31.3 30.8 19.0 48 8.0 WNW 20 32 11 17 1013.4 1013.4 0.0
25/10:00am 30.9 29.9 18.9 48 7.8 NW 22 30 12 16 1013.6 1013.6 0.0
25/09:30am 30.0 29.9 18.8 51 7.2 NW 17 26 9 14 1013.7 1013.7 0.0
25/09:00am 27.6 27.9 19.7 62 5.1 N 17 24 9 13 1013.5 1013.5 0.0
25/08:30am 25.6 25.3 19.5 69 3.9 N 20 26 11 14 1013.5 1013.5 0.0
25/08:00am 23.5 25.4 19.8 80 2.4 NNW 9 13 5 7 1013.8 1013.8 0.0
25/07:30am 22.0 23.0 19.5 86 1.6 N 13 15 7 8 1013.5 1013.5 0.0
25/07:00am 20.9 21.8 19.2 90 1.1 N 13 17 7 9 1013.3 1013.3 0.0
25/06:30am 19.4 20.0 18.7 96 0.4 N 13 15 7 8 1013.0 1013.0 0.0
25/06:00am 18.6 19.1 18.3 98 0.2 N 13 15 7 8 1012.6 1012.6 0.0
25/05:30am 17.3 17.8 16.5 95 0.5 NNW 9 11 5 6 1012.4 1012.4 0.0
25/05:00am 18.8 21.4 18.5 98 0.2 E 2 7 1 4 1012.0 1012.0 0.0
25/04:30am 17.6 18.5 16.6 94 0.6 WSW 7 9 4 5 1011.9 1011.9 0.0
25/04:00am 18.6 21.2 17.6 94 0.6 CALM 0 0 0 0 1011.2 1011.2 0.0
25/03:30am 19.1 22.0 18.3 95 0.5 CALM 0 0 0 0 1011.4 1011.4 0.0
25/03:00am 18.1 19.0 16.6 91 0.9 NW 7 9 4 5 1011.3 1011.3 0.0
25/02:30am 18.9 19.7 17.4 91 0.9 N 9 11 5 6 1011.2 1011.2 0.0
25/02:00am 19.8 22.4 17.6 87 1.3 CALM 0 0 0 0 1011.5 1011.5 0.0
25/01:30am 20.0 21.3 17.6 86 1.5 NNW 7 9 4 5 1011.7 1011.7 0.0
25/01:00am 20.7 21.8 18.1 85 1.6 NNW 9 13 5 7 1011.9 1011.9 0.0
25/12:30am 22.4 23.1 18.8 80 2.3 N 13 20 7 11 1012.0 1012.0 0.0
25/12:00am 22.4 22.7 18.8 80 2.3 N 15 20 8 11 1012.2 1012.2 0.0
 
Date/Time
EDT
Temp
°C
App
Temp
°C
Dew
Point
Rel
Hum
%
Delta-T
°C
Wind Press
QNH
hPa
Press
MSL
hPa
Rain
since 9 am
mm
Dir
 
Spd
km/h
Gust
km/h
Spd
kts
Gust
kts
24/11:30pm 23.0 22.9 18.7 77 2.7 N 17 24 9 13 1012.4 1012.4 0.0
24/11:00pm 23.3 23.2 18.8 76 2.8 NNE 17 22 9 12 1012.5 1012.5 0.0
24/10:30pm 23.2 23.5 18.7 76 2.8 NNE 15 20 8 11 1012.4 1012.4 0.0
24/10:00pm 23.6 24.0 18.9 75 3.0 NE 15 20 8 11 1012.1 1012.1 0.0
24/09:30pm 23.9 23.4 19.2 75 3.0 NE 20 30 11 16 1011.7 1011.7 0.0
24/09:00pm 24.3 23.8 19.1 73 3.3 NE 20 28 11 15 1011.3 1011.3 0.0
24/08:30pm 24.9 24.0 19.0 69 3.8 NE 22 32 12 17 1010.9 1010.9 0.0
24/08:00pm 25.5 25.6 19.2 68 4.0 NE 17 26 9 14 1010.7 1010.7 0.0
24/07:30pm 26.7 25.1 19.3 64 4.8 NE 26 35 14 19 1010.0 1010.0 0.0
24/07:00pm 27.9 26.4 19.4 60 5.5 NE 26 37 14 20 1009.5 1009.5 0.0
24/06:30pm 29.2 27.6 19.2 54 6.5 NE 26 37 14 20 1009.3 1009.3 0.0
24/06:00pm 29.8 28.1 19.8 55 6.6 ENE 28 35 15 19 1009.1 1009.1 0.0
24/05:30pm 30.6 29.2 19.6 51 7.2 NE 26 37 14 20 1009.1 1009.1 0.0
24/05:00pm 30.9 29.6 19.9 52 7.3 ENE 26 37 14 20 1009.3 1009.3 0.0
24/04:30pm 30.7 29.9 20.0 52 7.1 ENE 24 32 13 17 1009.8 1009.8 0.0
24/04:00pm 31.3 30.3 19.6 49 7.7 NE 24 35 13 19 1010.1 1010.1 0.0
24/03:30pm 31.8 30.7 19.4 47 8.1 ENE 24 32 13 17 1010.5 1010.5 0.0
24/03:00pm 32.9 32.2 19.4 45 8.9 ENE 22 32 12 17 1011.0 1011.0 0.0
24/02:30pm 35.1 34.4 18.2 36 11.0 ENE 19 28 10 15 1011.4 1011.4 0.0
24/02:00pm 35.5 35.5 18.1 35 11.3 NE 15 22 8 12 1011.7 1011.7 0.0
24/01:30pm 35.0 35.2 16.8 34 11.6 NNW 11 20 6 11 1012.2 1012.2 0.0
24/01:00pm 34.5 35.7 16.8 34 11.3 W 6 15 3 8 1012.8 1012.8 0.0
24/12:30pm 34.0 35.0 17.7 38 10.5 NW 9 17 5 9 1013.4 1013.4 0.0
24/12:00pm 32.2 32.0 17.7 42 9.3 N 15 22 8 12 1013.9 1013.9 0.0
24/11:30am 33.0 33.4 19.1 43 9.1 NNW 15 22 8 12 1014.3 1014.3 0.0
24/11:00am 32.2 32.0 18.4 44 8.9 N 17 22 9 12 1014.7 1014.7 0.0
24/10:30am 31.3 31.6 17.9 44 8.6 NNW 13 20 7 11 1015.0 1015.0 0.0
24/10:00am 30.3 30.8 19.3 51 7.2 N 15 20 8 11 1015.4 1015.4 0.0
24/09:30am 28.9 29.6 18.9 54 6.5 NNW 13 17 7 9 1015.7 1015.7 0.0
24/09:00am 27.8 29.1 18.5 57 5.9 N 9 19 5 10 1015.9 1015.9 0.0
24/08:30am 26.3 28.3 19.9 68 4.2 NNE 9 13 5 7 1016.1 1016.1 0.0
24/08:00am 25.1 27.3 19.7 72 3.5 NNE 7 11 4 6 1016.1 1016.1 0.0
24/07:30am 24.2 26.7 20.3 79 2.5 N 7 9 4 5 1016.0 1016.0 0.0
24/07:00am 22.1 24.2 20.2 89 1.2 N 9 11 5 6 1015.7 1015.7 0.0
24/06:30am 19.8 22.0 19.1 96 0.4 N 6 9 3 5 1015.5 1015.5 0.0
24/06:00am 18.7 19.8 17.9 95 0.5 NNW 9 11 5 6 1015.2 1015.2 0.0
24/05:30am 19.9 23.1 18.9 94 0.6 CALM 0 0 0 0 1014.8 1014.8 0.0
24/05:00am 19.6 22.5 18.3 92 0.8 CALM 0 0 0 0 1014.9 1014.9 0.0
24/04:30am 19.9 21.3 18.6 92 0.8 NNW 9 11 5 6 1014.5 1014.5 0.0
24/04:00am 20.6 22.0 18.7 89 1.2 N 9 11 5 6 1014.4 1014.4 0.0
24/03:30am 20.5 21.6 18.1 86 1.5 N 9 13 5 7 1014.4 1014.4 0.0
24/03:00am 21.4 22.7 18.4 83 1.9 N 9 15 5 8 1014.2 1014.2 0.0
24/02:30am 22.8 23.0 19.4 81 2.2 NNE 17 22 9 12 1014.0 1014.0 0.0
24/02:00am 22.9 22.7 19.3 80 2.3 NNE 19 22 10 12 1014.1 1014.1 0.0
24/01:30am 23.3 22.9 19.0 77 2.7 NNE 19 24 10 13 1014.5 1014.5 0.0
24/01:00am 23.5 23.5 19.0 76 2.9 NNE 17 24 9 13 1014.8 1014.8 0.0

Other Formats:

Comma delimited format used in spreadsheet applications
http://www.bom.gov.au/fwo/IDN60801/IDN60801.94572.axf

JavaScript Object Notation format (JSON) in row-major order
http://www.bom.gov.au/fwo/IDN60801/IDN60801.94572.json